createdAt,value
2022-08-17T00:02:25.411Z,16.87
2022-08-17T00:07:23.555Z,16.78
2022-08-17T00:12:42.430Z,16.71
2022-08-17T00:17:26.714Z,16.64
2022-08-17T00:22:33.507Z,16.58
2022-08-17T00:27:30.522Z,16.5
2022-08-17T00:33:10.451Z,16.44
2022-08-17T00:37:34.053Z,16.39
2022-08-17T00:42:35.897Z,16.33
2022-08-17T00:47:37.104Z,16.27
2022-08-17T00:52:38.798Z,16.21
2022-08-17T00:57:40.530Z,16.18
2022-08-17T01:02:42.180Z,16.15
2022-08-17T01:07:43.467Z,16.1
2022-08-17T01:12:45.254Z,16.08
2022-08-17T01:17:46.528Z,16.03
2022-08-17T01:22:47.733Z,15.98
2022-08-17T01:27:49.092Z,15.93
2022-08-17T01:32:59.579Z,15.89
2022-08-17T01:37:53.068Z,15.84
2022-08-17T01:42:54.683Z,15.78
2022-08-17T01:47:56.398Z,15.72
2022-08-17T01:52:58.550Z,15.67
2022-08-17T01:58:00.369Z,15.64
2022-08-17T02:03:02.215Z,15.58
2022-08-17T02:08:04.356Z,15.54
2022-08-17T02:13:06.362Z,15.51
2022-08-17T02:18:08.246Z,15.48
2022-08-17T02:23:10.007Z,15.44
2022-08-17T02:28:11.598Z,15.4
2022-08-17T02:33:13.129Z,15.34
2022-08-17T02:38:14.703Z,15.29
2022-08-17T02:43:16.155Z,15.26
2022-08-17T02:48:30.501Z,15.21
2022-08-17T02:53:19.778Z,15.18
2022-08-17T03:13:32.776Z,15.01
2022-08-17T03:18:34.450Z,14.97
2022-08-17T03:28:37.358Z,14.9
2022-08-17T03:43:42.091Z,14.8
2022-08-17T03:48:44.236Z,14.76
2022-08-17T03:53:46.016Z,14.74
2022-08-17T03:58:47.921Z,14.72
2022-08-17T04:03:49.540Z,14.71
2022-08-17T04:08:51.381Z,14.7
2022-08-17T04:13:53.457Z,14.68
2022-08-17T04:18:54.784Z,14.66
2022-08-17T04:23:56.581Z,14.66
2022-08-17T04:28:58.059Z,14.65
2022-08-17T04:34:00.105Z,14.68
2022-08-17T04:39:01.521Z,14.7
2022-08-17T04:44:03.353Z,14.73
2022-08-17T04:49:05.097Z,14.79
2022-08-17T04:54:07.245Z,14.84
2022-08-17T04:59:08.905Z,14.88
2022-08-17T05:04:21.165Z,14.96
2022-08-17T05:09:12.375Z,15.03
2022-08-17T05:14:14.222Z,15.11
2022-08-17T05:19:15.988Z,15.21
2022-08-17T05:24:38.912Z,15.3
2022-08-17T05:29:19.393Z,15.41
2022-08-17T05:34:20.897Z,15.52
2022-08-17T05:39:22.925Z,15.72
2022-08-17T05:44:24.862Z,15.81
2022-08-17T05:49:26.662Z,16.02
2022-08-17T05:54:28.532Z,16.11
2022-08-17T05:59:30.308Z,16.25
2022-08-17T06:04:32.328Z,16.46
2022-08-17T06:09:34.045Z,16.9
2022-08-17T06:14:34.713Z,17.25
2022-08-17T06:19:36.398Z,17.67
2022-08-17T06:24:38.542Z,17.98
2022-08-17T06:29:40.071Z,18.2
2022-08-17T06:34:42.005Z,18.37
2022-08-17T06:39:44.227Z,18.64
2022-08-17T06:44:51.062Z,19.06
2022-08-17T06:49:50.562Z,19.31
2022-08-17T06:54:48.956Z,19.53
2022-08-17T06:59:54.576Z,19.92
2022-08-17T07:04:52.215Z,20.15
2022-08-17T07:09:53.636Z,20.51
2022-08-17T07:14:55.366Z,20.93
2022-08-17T07:19:57.075Z,21.21
2022-08-17T07:24:59.244Z,21.71
2022-08-17T07:30:01.043Z,22.24
2022-08-17T07:35:02.803Z,22.68
2022-08-17T07:40:14.984Z,23.09
2022-08-17T07:45:06.574Z,23.54
2022-08-17T07:50:08.361Z,23.97
2022-08-17T07:55:09.560Z,24.31
2022-08-17T08:00:11.357Z,24.86
2022-08-17T08:05:13.161Z,25.4
2022-08-17T08:10:15.160Z,25.57
2022-08-17T08:15:16.872Z,25.85
2022-08-17T08:20:19.756Z,26.4
2022-08-17T08:25:19.777Z,26.82
2022-08-17T08:30:21.886Z,27.12
2022-08-17T08:35:23.323Z,27.34
2022-08-17T08:40:25.352Z,27.65
2022-08-17T08:45:27.258Z,27.89
2022-08-17T08:50:30.370Z,28.08
2022-08-17T08:55:30.248Z,28.13
2022-08-17T09:00:32.350Z,28.27
2022-08-17T09:05:34.027Z,28.01
2022-08-17T09:10:35.474Z,28.3
2022-08-17T09:15:37.598Z,28.26
2022-08-17T09:20:39.738Z,28.4
2022-08-17T09:25:41.713Z,28.37
2022-08-17T09:30:43.206Z,27.65
2022-08-17T09:35:45.312Z,28.35
2022-08-17T09:40:46.670Z,28.49
2022-08-17T09:45:48.508Z,28.68
2022-08-17T09:50:55.600Z,28.43
2022-08-17T09:55:52.683Z,28.89
2022-08-17T10:00:54.825Z,29.34
2022-08-17T10:05:56.940Z,29.6
2022-08-17T10:10:57.911Z,29.88
2022-08-17T10:15:59.454Z,29.38
2022-08-17T10:21:01.466Z,29.79
2022-08-17T10:26:02.721Z,30.05
2022-08-17T10:31:33.503Z,30.39
2022-08-17T10:36:10.238Z,30.53
2022-08-17T10:41:08.187Z,30.62
2022-08-17T10:46:21.558Z,30.28
2022-08-17T10:51:11.539Z,30.24
2022-08-17T10:56:12.748Z,30.33
2022-08-17T11:01:14.373Z,30.15
2022-08-17T11:06:16.068Z,30.02
2022-08-17T11:11:17.893Z,30.38
2022-08-17T11:16:19.838Z,30.54
2022-08-17T11:21:21.820Z,30.56
2022-08-17T11:26:31.732Z,30.28
2022-08-17T11:31:32.431Z,30.36
2022-08-17T11:36:27.817Z,30.71
2022-08-17T11:41:29.819Z,31
2022-08-17T11:46:31.670Z,30.9
2022-08-17T11:51:33.358Z,31.16
2022-08-17T11:56:35.346Z,31.39
2022-08-17T12:01:36.869Z,31.05
2022-08-17T12:06:38.848Z,31.21
2022-08-17T12:11:55.077Z,31.46
2022-08-17T12:16:41.509Z,31.19
2022-08-17T12:21:42.862Z,31.35
2022-08-17T12:26:44.182Z,31.31
2022-08-17T12:31:45.742Z,30.85
2022-08-17T12:36:47.153Z,31.12
2022-08-17T12:41:50.270Z,31.17
2022-08-17T12:46:50.488Z,30.78
2022-08-17T12:51:52.274Z,31.07
2022-08-17T12:56:53.536Z,31.37
2022-08-17T13:01:55.527Z,31.3
2022-08-17T13:06:58.253Z,31.47
2022-08-17T13:11:58.338Z,31.5
2022-08-17T13:17:00.505Z,31.62
2022-08-17T13:22:01.935Z,31.56
2022-08-17T13:27:07.961Z,31.63
2022-08-17T13:32:05.275Z,31.67
2022-08-17T13:37:06.542Z,31.58
2022-08-17T13:42:11.151Z,31.5
2022-08-17T13:47:10.082Z,31.14
2022-08-17T13:52:12.162Z,30.94
2022-08-17T13:57:13.427Z,30.87
2022-08-17T14:02:14.709Z,31.16
2022-08-17T14:07:16.158Z,31.32
2022-08-17T14:12:17.561Z,31.47
2022-08-17T14:17:18.757Z,31.38
2022-08-17T14:22:20.632Z,31.14
2022-08-17T14:27:22.349Z,31.34
2022-08-17T14:32:23.833Z,31.41
2022-08-17T14:37:25.275Z,31.56
2022-08-17T14:42:26.882Z,31.47
2022-08-17T14:47:28.888Z,31.51
2022-08-17T14:52:30.730Z,31.56
2022-08-17T14:57:33.857Z,31.34
2022-08-17T15:02:33.178Z,31.28
2022-08-17T15:07:35.168Z,31.17
2022-08-17T15:12:36.722Z,31.11
2022-08-17T15:17:44.074Z,31.16
2022-08-17T15:22:40.292Z,31.13
2022-08-17T15:27:41.625Z,31.1
2022-08-17T15:32:46.938Z,30.95
2022-08-17T15:37:45.622Z,30.69
2022-08-17T15:42:47.490Z,30.68
2022-08-17T15:47:48.943Z,30.53
2022-08-17T15:52:50.506Z,30.47
2022-08-17T15:57:52.015Z,30.44
2022-08-17T16:03:15.454Z,30.4
2022-08-17T16:07:55.317Z,30.33
2022-08-17T16:12:57.150Z,30.33
2022-08-17T16:17:58.584Z,30.22
2022-08-17T16:23:00.185Z,30.17
2022-08-17T16:28:01.668Z,30.06
2022-08-17T16:33:03.785Z,29.98
2022-08-17T16:38:05.065Z,29.95
2022-08-17T16:43:06.315Z,29.86
2022-08-17T16:48:07.839Z,29.82
2022-08-17T16:53:09.653Z,29.73
2022-08-17T16:58:11.511Z,29.64
2022-08-17T17:03:19.001Z,29.58
2022-08-17T17:08:14.806Z,29.56
2022-08-17T17:13:16.028Z,29.44
2022-08-17T17:18:17.847Z,29.27
2022-08-17T17:23:19.894Z,29.12
2022-08-17T17:28:21.845Z,29.08
2022-08-17T17:38:25.054Z,28.88
2022-08-17T17:43:39.174Z,28.77
2022-08-17T18:03:33.674Z,28.27
2022-08-17T18:08:35.122Z,28.12
2022-08-17T18:38:45.172Z,26.91
2022-08-17T18:43:53.376Z,26.74
2022-08-17T18:48:55.923Z,26.54
2022-08-17T18:53:49.840Z,26.34
2022-08-17T18:58:51.651Z,26.16
2022-08-17T19:03:53.475Z,25.96
2022-08-17T19:08:55.080Z,25.74
2022-08-17T19:13:56.366Z,25.46
2022-08-17T19:18:58.511Z,25.3
2022-08-17T19:24:08.823Z,25.11
2022-08-17T19:29:01.044Z,24.97
2022-08-17T19:34:02.997Z,24.78
2022-08-17T19:39:04.348Z,24.64
2022-08-17T19:39:10.651Z,24.64
2022-08-17T19:44:12.173Z,24.53
2022-08-17T19:49:14.241Z,24.46
2022-08-17T19:54:15.741Z,24.36
2022-08-17T19:59:17.564Z,24.3
2022-08-17T20:04:18.938Z,24.23
2022-08-17T20:09:20.764Z,24.17
2022-08-17T20:14:22.364Z,24.11
2022-08-17T20:19:24.105Z,24.08
2022-08-17T20:24:25.393Z,24.04
2022-08-17T20:29:31.917Z,24.02
2022-08-17T20:34:31.079Z,23.98
2022-08-17T20:39:30.278Z,23.95
2022-08-17T20:44:31.534Z,23.92
2022-08-17T20:49:33.572Z,23.9
2022-08-17T20:54:35.705Z,23.89
2022-08-17T20:59:37.671Z,23.88
2022-08-17T21:04:39.721Z,23.85
2022-08-17T21:09:41.855Z,23.84
2022-08-17T21:14:43.811Z,23.81
2022-08-17T21:24:47.360Z,23.75
2022-08-17T21:29:48.786Z,23.7
2022-08-17T21:34:50.685Z,23.62
2022-08-17T21:39:52.028Z,23.52
2022-08-17T21:44:53.605Z,23.46
2022-08-17T21:49:55.469Z,23.42
2022-08-17T21:54:57.354Z,23.38
2022-08-17T21:59:59.234Z,23.35
2022-08-17T22:15:04.770Z,23.22
2022-08-17T22:20:06.941Z,23.16
2022-08-17T22:25:08.256Z,23.11
2022-08-17T22:30:09.929Z,22.97
2022-08-17T22:35:11.086Z,22.87
2022-08-17T22:40:12.347Z,22.74
2022-08-17T22:45:13.844Z,22.55
2022-08-17T22:50:15.725Z,22.03
2022-08-17T22:55:16.969Z,21.45
2022-08-17T23:00:19.122Z,21.12
2022-08-17T23:05:21.235Z,20.68
2022-08-17T23:10:23.124Z,20.16
2022-08-17T23:15:24.682Z,19.71
2022-08-17T23:20:26.801Z,19.36
2022-08-17T23:25:28.726Z,18.95
2022-08-17T23:30:30.758Z,18.74
2022-08-17T23:35:39.523Z,18.57
2022-08-17T23:40:34.310Z,18.35
2022-08-17T23:45:36.355Z,18.28
2022-08-17T23:50:38.032Z,18.28
2022-08-17T23:55:39.446Z,18.33
